createdAt,value
2022-11-22T03:59:13.981Z,485.00
2022-11-22T04:00:14.083Z,453.00
2022-11-22T04:01:16.788Z,450.00
2022-11-22T04:02:14.407Z,446.00
2022-11-22T04:03:14.449Z,445.00
2022-11-22T04:04:14.629Z,446.00
2022-11-22T04:05:14.717Z,444.00
2022-11-22T04:06:14.832Z,442.00
2022-11-22T04:07:14.962Z,443.00
2022-11-22T04:08:15.048Z,444.00
2022-11-22T04:09:15.306Z,443.00
2022-11-22T04:10:17.917Z,442.00
2022-11-22T04:11:16.407Z,444.00
2022-11-22T04:12:15.536Z,443.00
2022-11-22T04:13:15.651Z,444.00
2022-11-22T04:14:15.820Z,442.00
2022-11-22T04:15:15.881Z,443.00
2022-11-22T04:16:16.057Z,444.00
2022-11-22T04:17:16.163Z,445.00
2022-11-22T04:18:16.324Z,445.00
2022-11-22T04:19:16.483Z,447.00
2022-11-22T04:20:16.688Z,445.00
2022-11-22T04:21:16.775Z,444.00
2022-11-22T04:22:16.965Z,444.00
2022-11-22T04:23:17.033Z,442.00
2022-11-22T04:24:17.203Z,440.00
2022-11-22T04:25:17.322Z,438.00
2022-11-22T04:26:17.432Z,438.00
2022-11-22T04:27:17.555Z,438.00
2022-11-22T04:28:17.663Z,437.00
2022-11-22T04:29:17.763Z,436.00
2022-11-22T04:30:20.746Z,434.00
2022-11-22T04:31:18.012Z,431.00
2022-11-22T04:32:18.162Z,432.00
2022-11-22T04:33:18.252Z,433.00
2022-11-22T04:34:18.411Z,434.00
2022-11-22T04:35:18.569Z,433.00
2022-11-22T04:36:18.764Z,432.00
2022-11-22T04:37:18.862Z,430.00
2022-11-22T04:38:18.990Z,431.00
2022-11-22T04:39:19.115Z,432.00
2022-11-22T04:40:19.239Z,434.00
2022-11-22T04:41:19.326Z,433.00
2022-11-22T04:42:19.583Z,434.00
2022-11-22T04:43:19.568Z,431.00
2022-11-22T04:44:19.731Z,430.00
2022-11-22T04:45:19.829Z,432.00
2022-11-22T04:46:19.938Z,435.00
2022-11-22T04:47:20.082Z,436.00
2022-11-22T04:48:20.202Z,437.00
2022-11-22T04:49:20.328Z,438.00
2022-11-22T04:50:20.499Z,437.00
2022-11-22T04:51:20.644Z,436.00
2022-11-22T04:52:21.670Z,438.00
2022-11-22T04:53:20.891Z,439.00
2022-11-22T04:54:20.961Z,440.00
2022-11-22T04:55:21.103Z,441.00
2022-11-22T04:56:21.267Z,442.00
2022-11-22T04:57:21.304Z,443.00
2022-11-22T04:58:21.449Z,442.00
2022-11-22T04:59:21.598Z,441.00
2022-11-22T05:00:21.746Z,440.00
2022-11-22T05:01:21.980Z,438.00
2022-11-22T05:02:22.041Z,439.00
2022-11-22T05:03:22.203Z,440.00
2022-11-22T05:04:22.347Z,439.00
2022-11-22T05:05:22.502Z,438.00
2022-11-22T05:06:22.649Z,437.00
2022-11-22T05:07:22.866Z,436.00
2022-11-22T05:08:22.949Z,435.00
2022-11-22T05:09:23.096Z,434.00
2022-11-22T05:10:26.756Z,435.00
2022-11-22T05:11:23.357Z,433.00
2022-11-22T05:12:23.501Z,433.00
2022-11-22T05:13:23.651Z,434.00
2022-11-22T05:14:23.845Z,431.00
2022-11-22T05:15:23.956Z,432.00
2022-11-22T05:16:24.036Z,434.00
2022-11-22T05:17:24.188Z,430.00
2022-11-22T05:18:24.363Z,430.00
2022-11-22T05:19:24.471Z,427.00
2022-11-22T05:20:24.624Z,425.00
2022-11-22T05:21:24.773Z,427.00
2022-11-22T05:22:24.936Z,429.00
2022-11-22T05:23:25.107Z,429.00
2022-11-22T05:24:25.218Z,427.00
2022-11-22T05:25:25.897Z,426.00
2022-11-22T05:26:25.494Z,427.00
2022-11-22T05:27:25.655Z,426.00
2022-11-22T05:28:25.786Z,429.00
2022-11-22T05:29:25.934Z,428.00
2022-11-22T05:30:26.100Z,427.00
2022-11-22T05:31:26.266Z,428.00
2022-11-22T05:32:26.344Z,429.00
2022-11-22T05:33:26.482Z,430.00
2022-11-22T05:34:26.617Z,431.00
2022-11-22T05:35:26.765Z,430.00
2022-11-22T05:36:26.915Z,435.00
2022-11-22T05:37:27.062Z,435.00
2022-11-22T05:38:27.219Z,436.00
2022-11-22T05:39:27.532Z,436.00
2022-11-22T05:40:27.426Z,437.00
2022-11-22T05:41:27.596Z,437.00
2022-11-22T05:42:27.681Z,435.00
2022-11-22T05:43:28.747Z,438.00
2022-11-22T05:44:27.902Z,441.00
2022-11-22T05:45:28.061Z,440.00
2022-11-22T05:46:28.170Z,440.00
2022-11-22T05:47:28.301Z,441.00
2022-11-22T05:48:29.414Z,440.00
2022-11-22T05:49:28.943Z,440.00
2022-11-22T05:50:28.743Z,439.00
2022-11-22T05:51:33.965Z,442.00
2022-11-22T05:52:31.385Z,443.00
2022-11-22T05:53:30.047Z,444.00
2022-11-22T05:54:29.211Z,444.00
2022-11-22T05:55:29.369Z,446.00
2022-11-22T05:56:29.568Z,445.00
2022-11-22T05:57:29.684Z,445.00
2022-11-22T05:58:29.819Z,442.00
2022-11-22T05:59:30.069Z,443.00
2022-11-22T06:00:31.053Z,440.00
2022-11-22T06:01:30.230Z,439.00
2022-11-22T06:02:30.390Z,439.00
2022-11-22T06:03:30.478Z,440.00
2022-11-22T06:04:30.610Z,439.00
2022-11-22T06:05:30.740Z,437.00
2022-11-22T06:06:30.899Z,438.00
2022-11-22T06:07:31.031Z,437.00
2022-11-22T06:08:31.111Z,438.00
2022-11-22T06:09:31.416Z,439.00
2022-11-22T06:10:31.425Z,441.00
2022-11-22T06:11:31.583Z,441.00
2022-11-22T06:12:31.651Z,442.00
2022-11-22T06:13:31.860Z,441.00
2022-11-22T06:14:31.956Z,443.00
2022-11-22T06:15:33.068Z,444.00
2022-11-22T06:16:32.258Z,445.00
2022-11-22T06:17:32.361Z,443.00
2022-11-22T06:18:32.536Z,443.00
2022-11-22T06:19:32.842Z,442.00
2022-11-22T06:20:32.766Z,442.00
2022-11-22T06:21:32.980Z,442.00
2022-11-22T06:22:33.055Z,441.00
2022-11-22T06:23:33.228Z,441.00
2022-11-22T06:24:33.329Z,441.00
2022-11-22T06:25:33.512Z,439.00
2022-11-22T06:26:39.119Z,439.00
2022-11-22T06:27:34.722Z,441.00
2022-11-22T06:28:33.871Z,441.00
2022-11-22T06:29:33.959Z,440.00
2022-11-22T06:30:34.138Z,438.00
2022-11-22T06:31:34.308Z,434.00
2022-11-22T06:32:34.436Z,434.00
2022-11-22T06:33:34.595Z,436.00
2022-11-22T06:34:34.776Z,438.00
2022-11-22T06:35:34.824Z,439.00
2022-11-22T06:36:35.007Z,442.00
2022-11-22T06:37:35.756Z,441.00
2022-11-22T06:38:35.205Z,444.00
2022-11-22T06:39:35.341Z,445.00
2022-11-22T06:40:35.454Z,445.00
2022-11-22T06:41:36.365Z,447.00
2022-11-22T06:42:38.584Z,447.00
2022-11-22T06:43:35.886Z,449.00
2022-11-22T06:44:36.124Z,448.00
2022-11-22T06:45:36.043Z,447.00
2022-11-22T06:46:50.763Z,444.00
2022-11-22T06:47:43.253Z,444.00
2022-11-22T06:48:36.576Z,445.00
2022-11-22T06:49:38.238Z,445.00
2022-11-22T06:50:38.827Z,445.00
2022-11-22T06:51:36.897Z,445.00
2022-11-22T06:52:37.973Z,446.00
2022-11-22T06:53:47.277Z,444.00
2022-11-22T06:54:39.359Z,442.00
2022-11-22T06:55:59.769Z,443.00
2022-11-22T06:56:39.980Z,444.00
2022-11-22T06:57:42.335Z,443.00
2022-11-22T06:58:39.174Z,444.00
2022-11-22T06:59:39.111Z,446.00
2022-11-22T07:00:39.484Z,447.00
2022-11-22T07:01:39.387Z,445.00
2022-11-22T07:02:42.023Z,442.00
2022-11-22T07:03:38.705Z,441.00
2022-11-22T07:04:56.077Z,443.00
2022-11-22T07:05:40.900Z,442.00
2022-11-22T07:06:39.312Z,445.00
2022-11-22T07:07:39.262Z,445.00
2022-11-22T07:08:40.270Z,445.00
2022-11-22T07:09:39.469Z,445.00
2022-11-22T07:10:39.579Z,444.00
2022-11-22T07:11:39.772Z,444.00
2022-11-22T07:12:40.629Z,445.00
2022-11-22T07:13:41.054Z,446.00
2022-11-22T07:14:40.408Z,446.00
2022-11-22T07:15:40.360Z,449.00
2022-11-22T07:16:40.482Z,450.00
2022-11-22T07:17:42.508Z,451.00
2022-11-22T07:18:41.626Z,452.00
2022-11-22T07:19:41.006Z,454.00
2022-11-22T07:20:41.647Z,454.00
2022-11-22T07:21:41.996Z,452.00
2022-11-22T07:22:41.966Z,452.00
2022-11-22T07:23:42.737Z,451.00
2022-11-22T07:24:42.293Z,451.00
2022-11-22T07:25:42.671Z,454.00
2022-11-22T07:26:42.665Z,453.00
2022-11-22T07:27:42.883Z,454.00
2022-11-22T07:28:42.113Z,452.00
2022-11-22T07:29:43.107Z,453.00
2022-11-22T07:30:44.248Z,454.00
2022-11-22T07:31:42.625Z,451.00
2022-11-22T07:32:45.879Z,452.00
2022-11-22T07:33:43.360Z,451.00
2022-11-22T07:34:42.933Z,451.00
2022-11-22T07:35:44.046Z,450.00
2022-11-22T07:36:43.193Z,449.00
2022-11-22T07:37:43.304Z,450.00
2022-11-22T07:38:43.426Z,449.00
2022-11-22T07:39:44.219Z,449.00
2022-11-22T07:40:43.708Z,452.00
2022-11-22T07:41:43.844Z,454.00
2022-11-22T07:42:44.013Z,454.00
2022-11-22T07:43:44.154Z,453.00
2022-11-22T07:44:44.313Z,450.00
2022-11-22T07:45:45.153Z,449.00
2022-11-22T07:46:45.493Z,449.00
2022-11-22T07:47:44.834Z,448.00
2022-11-22T07:48:45.622Z,449.00
2022-11-22T07:49:45.924Z,450.00
2022-11-22T07:50:45.338Z,448.00
2022-11-22T07:51:45.435Z,447.00
2022-11-22T07:52:46.259Z,450.00
2022-11-22T07:53:45.612Z,451.00
2022-11-22T07:54:45.724Z,451.00
2022-11-22T07:55:46.110Z,449.00
2022-11-22T07:56:46.171Z,447.00
2022-11-22T07:57:46.681Z,445.00
2022-11-22T07:58:46.260Z,442.00
2022-11-22T07:59:46.361Z,443.00
2022-11-22T08:00:46.411Z,445.00
2022-11-22T08:01:46.673Z,444.00
2022-11-22T08:02:46.840Z,443.00
2022-11-22T08:03:46.856Z,446.00
2022-11-22T08:04:46.934Z,447.00
2022-11-22T08:05:48.112Z,448.00
2022-11-22T08:06:47.202Z,444.00
2022-11-22T08:07:48.119Z,444.00
2022-11-22T08:08:47.603Z,441.00
2022-11-22T08:09:47.681Z,440.00
2022-11-22T08:10:48.374Z,436.00
2022-11-22T08:11:47.838Z,436.00
2022-11-22T08:12:49.120Z,438.00
2022-11-22T08:13:50.081Z,438.00
2022-11-22T08:14:51.023Z,439.00
2022-11-22T08:15:48.400Z,438.00
2022-11-22T08:16:48.514Z,437.00
2022-11-22T08:17:48.609Z,438.00
2022-11-22T08:18:50.716Z,439.00
2022-11-22T08:19:49.088Z,441.00
2022-11-22T08:20:49.335Z,443.00
2022-11-22T08:21:53.920Z,442.00
2022-11-22T08:22:51.319Z,442.00
2022-11-22T08:23:49.668Z,441.00
2022-11-22T08:24:49.679Z,442.00
2022-11-22T08:25:49.991Z,440.00
2022-11-22T08:26:50.011Z,440.00
2022-11-22T08:27:58.074Z,442.00
2022-11-22T08:28:50.626Z,442.00
2022-11-22T08:29:51.935Z,444.00
2022-11-22T08:30:51.208Z,441.00
2022-11-22T08:31:51.642Z,443.00
2022-11-22T08:32:52.164Z,444.00
2022-11-22T08:33:54.982Z,443.00
2022-11-22T08:34:51.610Z,444.00
2022-11-22T08:35:51.996Z,444.00
2022-11-22T08:37:13.157Z,444.00
2022-11-22T08:39:48.846Z,475.00
2022-11-22T08:41:29.373Z,494.00
2022-11-22T08:42:28.783Z,474.00
2022-11-22T08:43:31.664Z,472.00
2022-11-22T08:44:31.662Z,470.00
2022-11-22T08:45:29.254Z,469.00
2022-11-22T08:46:29.591Z,468.00
2022-11-22T08:47:30.280Z,466.00
2022-11-22T08:48:33.356Z,466.00
2022-11-22T08:49:32.534Z,463.00
2022-11-22T08:50:30.786Z,460.00
2022-11-22T08:51:30.262Z,457.00
2022-11-22T08:52:32.035Z,458.00
2022-11-22T08:53:51.922Z,458.00
2022-11-22T08:54:34.952Z,462.00
2022-11-22T08:55:32.052Z,460.00
2022-11-22T08:56:32.272Z,460.00
2022-11-22T08:57:45.960Z,462.00
2022-11-22T08:58:32.831Z,463.00
2022-11-22T08:59:31.438Z,464.00
2022-11-22T09:00:33.644Z,463.00
2022-11-22T09:01:32.254Z,465.00
2022-11-22T09:02:32.108Z,463.00
2022-11-22T09:03:32.614Z,465.00
2022-11-22T09:04:32.225Z,464.00
2022-11-22T09:05:32.578Z,460.00
2022-11-22T09:08:36.257Z,453.00
2022-11-22T09:09:39.725Z,455.00
2022-11-22T09:10:34.430Z,454.00
2022-11-22T09:11:32.954Z,456.00
2022-11-22T09:12:33.015Z,459.00
2022-11-22T09:13:34.836Z,462.00
2022-11-22T09:14:37.600Z,459.00
2022-11-22T09:15:33.534Z,458.00
2022-11-22T09:16:33.600Z,458.00
2022-11-22T09:17:35.184Z,459.00
2022-11-22T09:18:33.699Z,460.00
2022-11-22T09:19:33.946Z,461.00
2022-11-22T09:20:34.006Z,462.00
2022-11-22T09:21:34.100Z,466.00
2022-11-22T09:22:34.405Z,465.00
2022-11-22T09:23:34.403Z,463.00
2022-11-22T09:24:35.105Z,461.00
2022-11-22T09:25:35.021Z,460.00
2022-11-22T09:26:34.756Z,461.00
2022-11-22T09:27:35.851Z,461.00
2022-11-22T09:28:36.767Z,462.00
2022-11-22T09:29:35.267Z,463.00
2022-11-22T09:30:36.271Z,465.00
2022-11-22T09:31:35.415Z,465.00
2022-11-22T09:32:39.660Z,466.00
2022-11-22T09:33:36.093Z,465.00
2022-11-22T09:34:39.086Z,464.00
2022-11-22T09:35:37.679Z,465.00
2022-11-22T09:36:36.072Z,464.00
2022-11-22T09:37:37.725Z,465.00
2022-11-22T09:38:36.290Z,464.00
2022-11-22T09:39:36.747Z,463.00
2022-11-22T09:40:36.740Z,462.00
2022-11-22T09:41:37.334Z,463.00
2022-11-22T09:42:37.069Z,464.00
2022-11-22T09:43:37.399Z,465.00
2022-11-22T09:44:38.280Z,466.00
2022-11-22T09:45:37.151Z,466.00
2022-11-22T09:46:37.634Z,464.00
2022-11-22T09:47:37.625Z,464.00
2022-11-22T09:48:37.726Z,466.00
2022-11-22T09:50:02.532Z,466.00
2022-11-22T09:50:52.156Z,467.00
2022-11-22T09:51:45.593Z,467.00
2022-11-22T09:52:38.773Z,468.00
2022-11-22T09:53:38.761Z,469.00
2022-11-22T09:54:38.527Z,468.00
2022-11-22T09:55:42.582Z,468.00
2022-11-22T09:56:47.334Z,468.00
2022-11-22T09:57:46.443Z,469.00
2022-11-22T09:58:40.178Z,470.00
2022-11-22T09:59:39.335Z,470.00
2022-11-22T10:00:39.897Z,470.00
2022-11-22T10:01:39.632Z,469.00
2022-11-22T10:02:58.902Z,469.00
2022-11-22T10:13:28.415Z,487.00
2022-11-22T10:14:29.914Z,478.00
2022-11-22T10:15:29.670Z,472.00
2022-11-22T10:16:28.652Z,470.00
2022-11-22T10:17:29.661Z,468.00
2022-11-22T10:18:35.680Z,469.00
2022-11-22T10:19:30.757Z,467.00
2022-11-22T10:20:30.042Z,466.00
2022-11-22T10:21:36.284Z,471.00
2022-11-22T10:22:30.146Z,471.00
2022-11-22T10:23:31.015Z,469.00
2022-11-22T10:24:30.608Z,467.00
2022-11-22T10:25:29.811Z,467.00
2022-11-22T10:26:37.040Z,470.00
2022-11-22T10:27:39.751Z,472.00
2022-11-22T10:28:31.931Z,474.00
2022-11-22T10:29:32.332Z,474.00
2022-11-22T10:30:41.249Z,474.00
2022-11-22T10:31:35.213Z,474.00
2022-11-22T10:33:00.147Z,476.00
2022-11-22T10:33:44.205Z,477.00
2022-11-22T10:34:39.905Z,478.00
2022-11-22T10:35:31.996Z,479.00
2022-11-22T10:36:34.629Z,478.00
2022-11-22T10:37:53.577Z,477.00
2022-11-22T10:38:40.568Z,477.00
2022-11-22T10:39:36.484Z,478.00
2022-11-22T10:40:32.478Z,478.00
2022-11-22T10:41:31.931Z,475.00
2022-11-22T10:42:36.503Z,476.00
2022-11-22T10:43:33.179Z,475.00
2022-11-22T10:44:32.736Z,478.00
2022-11-22T10:45:33.985Z,479.00
2022-11-22T10:46:35.904Z,480.00
2022-11-22T10:47:39.675Z,480.00
2022-11-22T10:48:33.367Z,480.00
2022-11-22T10:49:33.355Z,477.00
2022-11-22T10:50:33.952Z,477.00
2022-11-22T10:51:33.971Z,480.00
2022-11-22T10:52:34.097Z,485.00
2022-11-22T10:53:33.527Z,486.00
2022-11-22T10:54:33.611Z,485.00
2022-11-22T10:55:33.799Z,485.00
2022-11-22T10:56:33.852Z,484.00
2022-11-22T10:57:34.976Z,481.00
2022-11-22T10:58:34.080Z,477.00
2022-11-22T10:59:38.689Z,479.00
2022-11-22T11:00:41.810Z,481.00
2022-11-22T11:01:35.456Z,479.00
2022-11-22T11:02:35.443Z,479.00
2022-11-22T11:03:34.664Z,479.00
2022-11-22T11:04:36.033Z,483.00
2022-11-22T11:05:37.416Z,483.00
2022-11-22T11:06:57.129Z,485.00
2022-11-22T11:07:36.372Z,483.00
2022-11-22T11:08:57.481Z,484.00
2022-11-22T11:10:36.774Z,483.00
2022-11-22T11:11:35.772Z,482.00
2022-11-22T11:12:38.518Z,478.00
2022-11-22T11:13:37.902Z,480.00
2022-11-22T11:14:36.236Z,479.00
2022-11-22T11:15:37.149Z,480.00
2022-11-22T11:16:36.492Z,480.00
2022-11-22T11:17:36.694Z,482.00
2022-11-22T11:18:37.535Z,481.00
2022-11-22T11:19:39.864Z,479.00
2022-11-22T11:20:37.055Z,478.00
2022-11-22T11:21:37.112Z,478.00
2022-11-22T11:23:12.682Z,478.00
2022-11-22T11:23:39.390Z,479.00
2022-11-22T11:24:39.496Z,480.00
2022-11-22T11:25:37.660Z,477.00
2022-11-22T11:26:37.761Z,478.00
2022-11-22T11:27:37.941Z,476.00
2022-11-22T11:28:40.180Z,476.00
2022-11-22T11:29:39.490Z,476.00
2022-11-22T11:30:38.428Z,480.00
2022-11-22T11:31:39.961Z,482.00
2022-11-22T11:32:39.144Z,481.00
2022-11-22T11:33:44.389Z,480.00
2022-11-22T11:34:38.965Z,481.00
2022-11-22T11:35:40.063Z,480.00
2022-11-22T11:36:39.184Z,479.00
2022-11-22T11:37:39.302Z,480.00
2022-11-22T11:39:01.546Z,477.00
2022-11-22T11:39:44.589Z,473.00
2022-11-22T11:40:40.766Z,474.00
2022-11-22T11:41:43.562Z,472.00
2022-11-22T11:42:39.908Z,471.00
2022-11-22T11:43:40.764Z,470.00
2022-11-22T11:44:40.976Z,468.00
2022-11-22T11:45:40.228Z,470.00
2022-11-22T11:46:41.530Z,469.00
2022-11-22T11:47:40.760Z,470.00
2022-11-22T11:48:40.630Z,469.00
2022-11-22T11:49:45.717Z,470.00
2022-11-22T11:50:40.818Z,474.00
2022-11-22T11:51:41.936Z,474.00
2022-11-22T11:52:41.188Z,476.00
2022-11-22T11:53:41.366Z,475.00
2022-11-22T11:54:41.448Z,477.00
2022-11-22T11:55:42.624Z,476.00
2022-11-22T11:56:41.696Z,480.00
2022-11-22T11:57:41.925Z,481.00
2022-11-22T11:58:42.912Z,481.00
2022-11-22T11:59:43.072Z,480.00
2022-11-22T12:00:43.192Z,481.00
2022-11-22T12:01:42.679Z,481.00
2022-11-22T12:02:42.553Z,482.00
2022-11-22T12:03:42.635Z,483.00
2022-11-22T12:04:43.090Z,480.00
2022-11-22T12:05:42.857Z,478.00
2022-11-22T12:06:43.025Z,478.00
2022-11-22T12:07:43.236Z,478.00
2022-11-22T12:08:44.419Z,478.00
2022-11-22T12:09:44.126Z,479.00
2022-11-22T12:10:43.494Z,480.00
2022-11-22T12:11:44.438Z,483.00
2022-11-22T12:12:43.874Z,482.00
2022-11-22T12:14:12.359Z,483.00
2022-11-22T12:15:09.721Z,483.00
2022-11-22T12:15:48.704Z,483.00
2022-11-22T12:17:17.268Z,483.00
2022-11-22T12:17:46.862Z,482.00
2022-11-22T12:18:54.025Z,479.00
2022-11-22T12:20:17.991Z,478.00
2022-11-22T12:21:03.479Z,480.00
2022-11-22T12:21:48.162Z,480.00
2022-11-22T12:23:50.922Z,482.00
2022-11-22T12:25:16.610Z,479.00
2022-11-22T12:25:47.525Z,476.00
2022-11-22T12:27:00.238Z,475.00
2022-11-22T12:27:47.034Z,477.00
2022-11-22T12:28:57.175Z,476.00
2022-11-22T12:29:58.177Z,476.00
2022-11-22T12:30:51.633Z,476.00
2022-11-22T12:31:48.400Z,476.00
2022-11-22T12:32:53.421Z,479.00
2022-11-22T12:33:51.256Z,480.00
2022-11-22T12:34:49.510Z,480.00
2022-11-22T12:35:53.668Z,483.00
2022-11-22T12:36:47.927Z,484.00
2022-11-22T12:37:50.331Z,480.00
2022-11-22T12:38:55.592Z,481.00
2022-11-22T12:39:49.256Z,479.00
2022-11-22T12:40:55.586Z,480.00
2022-11-22T12:42:00.163Z,481.00
2022-11-22T12:42:47.883Z,480.00
2022-11-22T12:43:48.808Z,480.00
2022-11-22T12:44:51.830Z,480.00
2022-11-22T12:45:48.383Z,482.00
2022-11-22T12:46:56.034Z,481.00
2022-11-22T12:47:49.260Z,482.00
2022-11-22T12:48:23.630Z,480.00
2022-11-22T12:48:52.065Z,481.00
2022-11-22T12:49:49.474Z,477.00
2022-11-22T12:50:53.405Z,479.00
2022-11-22T12:51:49.182Z,477.00
2022-11-22T12:52:49.362Z,476.00
2022-11-22T12:53:49.501Z,475.00
2022-11-22T12:54:49.562Z,476.00
2022-11-22T12:55:50.418Z,478.00
2022-11-22T12:56:51.699Z,481.00
2022-11-22T12:57:49.897Z,480.00
2022-11-22T12:58:50.377Z,479.00
2022-11-22T12:59:50.554Z,480.00
2022-11-22T13:00:50.462Z,484.00
2022-11-22T13:01:50.984Z,483.00
2022-11-22T13:02:55.910Z,482.00
2022-11-22T13:03:52.077Z,481.00
2022-11-22T13:04:51.976Z,483.00
2022-11-22T13:05:51.129Z,482.00
2022-11-22T13:06:52.011Z,483.00
2022-11-22T13:07:51.342Z,482.00
2022-11-22T13:08:55.601Z,479.00
2022-11-22T13:09:52.747Z,476.00
2022-11-22T13:10:52.196Z,477.00
2022-11-22T13:11:51.939Z,478.00
2022-11-22T13:12:52.169Z,479.00
2022-11-22T13:13:52.575Z,476.00
2022-11-22T13:14:52.553Z,477.00
2022-11-22T13:15:53.986Z,477.00
2022-11-22T13:16:56.195Z,477.00
2022-11-22T13:17:53.718Z,478.00
2022-11-22T13:19:00.706Z,477.00
2022-11-22T13:19:55.325Z,476.00
2022-11-22T13:20:55.008Z,475.00
2022-11-22T13:21:54.338Z,475.00
2022-11-22T13:22:53.761Z,477.00
2022-11-22T13:23:53.662Z,476.00
2022-11-22T13:24:53.689Z,475.00
2022-11-22T13:25:54.007Z,472.00
2022-11-22T13:26:54.066Z,469.00
2022-11-22T13:27:54.303Z,470.00
2022-11-22T13:28:54.160Z,472.00
2022-11-22T13:29:54.278Z,470.00
2022-11-22T13:30:54.462Z,472.00
2022-11-22T13:31:54.623Z,472.00
2022-11-22T13:32:55.614Z,471.00
2022-11-22T13:33:55.246Z,471.00
2022-11-22T13:34:55.006Z,473.00
2022-11-22T13:35:55.174Z,473.00
2022-11-22T13:37:01.686Z,473.00
2022-11-22T13:37:57.351Z,470.00
2022-11-22T13:38:55.669Z,470.00
2022-11-22T13:39:56.652Z,467.00
2022-11-22T13:40:55.815Z,467.00
2022-11-22T13:41:57.302Z,468.00
2022-11-22T13:42:57.040Z,470.00
2022-11-22T13:43:57.161Z,469.00
2022-11-22T13:44:57.308Z,470.00
2022-11-22T13:45:56.640Z,468.00
2022-11-22T13:46:56.712Z,469.00
2022-11-22T13:47:56.922Z,469.00
2022-11-22T13:48:58.327Z,470.00
2022-11-22T13:49:57.923Z,470.00
2022-11-22T13:50:58.045Z,472.00
2022-11-22T13:51:57.241Z,473.00
2022-11-22T13:52:57.324Z,475.00
2022-11-22T13:53:57.452Z,472.00
2022-11-22T13:54:57.673Z,472.00
2022-11-22T13:55:57.695Z,471.00
2022-11-22T13:56:57.850Z,473.00
2022-11-22T13:57:59.968Z,474.00
2022-11-22T13:58:59.112Z,476.00
2022-11-22T13:59:59.154Z,473.00
2022-11-22T14:01:00.498Z,472.00
2022-11-22T14:02:00.491Z,471.00
2022-11-22T14:03:03.153Z,470.00
2022-11-22T14:03:58.867Z,469.00
2022-11-22T14:04:59.083Z,470.00
2022-11-22T14:05:59.975Z,467.00
2022-11-22T14:06:59.432Z,466.00
2022-11-22T14:07:59.461Z,465.00
2022-11-22T14:08:59.467Z,464.00
2022-11-22T14:10:00.641Z,464.00
2022-11-22T14:11:03.666Z,461.00
2022-11-22T14:12:00.942Z,462.00
2022-11-22T14:13:01.031Z,460.00
2022-11-22T14:14:00.206Z,459.00
2022-11-22T14:15:00.661Z,461.00
2022-11-22T14:16:02.230Z,459.00
2022-11-22T14:17:01.394Z,458.00
2022-11-22T14:18:00.862Z,458.00
2022-11-22T14:19:00.869Z,459.00
2022-11-22T14:20:01.840Z,459.00
2022-11-22T14:21:01.926Z,459.00
2022-11-22T14:22:01.389Z,463.00
2022-11-22T14:23:01.428Z,463.00
2022-11-22T14:24:03.567Z,466.00
2022-11-22T14:25:01.689Z,468.00
2022-11-22T14:26:01.815Z,468.00
2022-11-22T14:27:02.086Z,466.00
2022-11-22T14:28:05.867Z,464.00
2022-11-22T14:29:02.416Z,464.00
2022-11-22T14:30:03.368Z,465.00
2022-11-22T14:31:02.495Z,466.00
2022-11-22T14:32:03.506Z,466.00
2022-11-22T14:33:03.407Z,463.00
2022-11-22T14:34:03.911Z,463.00
2022-11-22T14:35:03.983Z,463.00
2022-11-22T14:36:03.897Z,460.00
2022-11-22T14:37:03.244Z,462.00
2022-11-22T14:38:04.344Z,461.00
2022-11-22T14:39:05.684Z,463.00
2022-11-22T14:40:03.708Z,464.00
2022-11-22T14:41:04.769Z,462.00
2022-11-22T14:42:10.171Z,462.00
2022-11-22T14:43:04.757Z,461.00
2022-11-22T14:44:04.345Z,462.00
2022-11-22T14:45:10.145Z,461.00
2022-11-22T14:46:19.540Z,457.00
2022-11-22T14:47:07.192Z,455.00
2022-11-22T14:48:05.384Z,453.00
2022-11-22T14:49:05.171Z,454.00
2022-11-22T14:50:05.228Z,453.00
2022-11-22T14:51:05.829Z,454.00
2022-11-22T14:52:05.375Z,457.00
2022-11-22T14:53:07.139Z,457.00
2022-11-22T14:54:06.290Z,457.00
2022-11-22T14:55:05.867Z,458.00
2022-11-22T14:56:06.575Z,457.00
2022-11-22T14:57:06.851Z,456.00
2022-11-22T14:58:06.895Z,458.00
2022-11-22T14:59:06.182Z,461.00
2022-11-22T15:00:06.384Z,462.00
2022-11-22T15:01:06.613Z,462.00
2022-11-22T15:02:06.725Z,459.00
2022-11-22T15:03:06.767Z,456.00
2022-11-22T15:09:11.958Z,454.00
2022-11-22T15:09:11.960Z,457.00
2022-11-22T15:09:15.079Z,455.00
2022-11-22T15:09:15.572Z,458.00
2022-11-22T15:09:19.643Z,454.00
2022-11-22T15:09:33.392Z,453.00
2022-11-22T15:10:09.638Z,454.00
2022-11-22T15:11:07.892Z,453.00
2022-11-22T15:12:07.971Z,451.00
2022-11-22T15:13:08.081Z,454.00
2022-11-22T15:14:08.180Z,454.00
2022-11-22T15:57:16.474Z,449.00
2022-11-22T15:58:14.304Z,447.00
2022-11-22T15:59:14.504Z,447.00
2022-11-22T16:00:14.611Z,445.00
2022-11-22T16:01:19.842Z,443.00
2022-11-22T16:12:43.421Z,492.00
2022-11-22T16:13:43.512Z,473.00
2022-11-22T16:14:43.722Z,473.00
2022-11-22T16:15:43.888Z,473.00
2022-11-22T16:16:43.934Z,471.00
2022-11-22T16:17:44.110Z,471.00
2022-11-22T16:18:44.192Z,471.00
2022-11-22T16:19:44.388Z,473.00
2022-11-22T16:20:44.469Z,472.00
2022-11-22T16:21:44.601Z,469.00
2022-11-22T16:22:44.750Z,470.00
2022-11-22T16:23:44.902Z,473.00
2022-11-22T16:24:45.052Z,470.00
2022-11-22T16:25:45.199Z,470.00
2022-11-22T16:26:45.337Z,471.00
2022-11-22T16:27:45.474Z,467.00
2022-11-22T16:28:45.812Z,463.00
2022-11-22T16:29:46.737Z,463.00
2022-11-22T16:30:45.951Z,464.00
2022-11-22T16:31:46.027Z,464.00
2022-11-22T16:32:46.172Z,464.00
2022-11-22T16:33:46.322Z,463.00
2022-11-22T16:34:47.026Z,463.00
2022-11-22T16:35:46.917Z,464.00
2022-11-22T16:36:46.789Z,463.00
2022-11-22T16:37:48.315Z,462.00
2022-11-22T16:38:47.052Z,461.00
2022-11-22T16:39:47.197Z,464.00
2022-11-22T16:40:47.356Z,467.00
2022-11-22T16:41:47.488Z,468.00
2022-11-22T16:42:47.631Z,466.00
2022-11-22T16:43:48.704Z,465.00
2022-11-22T16:44:47.932Z,466.00
2022-11-22T16:45:49.058Z,468.00
2022-11-22T16:46:48.195Z,467.00
2022-11-22T16:47:58.484Z,464.00
2022-11-22T16:48:49.406Z,466.00
2022-11-22T16:49:48.524Z,466.00
2022-11-22T16:50:48.736Z,466.00
2022-11-22T16:51:48.858Z,465.00
2022-11-22T16:52:48.952Z,467.00
2022-11-22T16:53:49.092Z,468.00
2022-11-22T16:54:49.225Z,469.00
2022-11-22T16:55:49.375Z,472.00
2022-11-22T16:56:49.478Z,471.00
2022-11-22T16:57:49.617Z,469.00
2022-11-22T16:58:49.769Z,471.00
2022-11-22T16:59:49.961Z,474.00
2022-11-22T17:00:50.092Z,473.00
2022-11-22T17:01:50.216Z,471.00
2022-11-22T17:02:50.252Z,472.00
2022-11-22T17:03:50.387Z,470.00
2022-11-22T17:04:50.515Z,469.00
2022-11-22T17:05:50.672Z,469.00
2022-11-22T17:06:50.832Z,469.00
2022-11-22T17:07:50.963Z,470.00
2022-11-22T17:08:51.035Z,469.00
2022-11-22T17:09:51.172Z,469.00
2022-11-22T17:10:51.333Z,469.00
2022-11-22T17:11:51.413Z,467.00
2022-11-22T17:12:51.562Z,466.00
2022-11-22T17:13:51.705Z,466.00
2022-11-22T17:14:51.831Z,468.00
2022-11-22T17:15:51.962Z,468.00
2022-11-22T17:16:52.119Z,467.00
2022-11-22T17:17:52.230Z,464.00
2022-11-22T17:18:52.385Z,462.00
2022-11-22T17:19:55.773Z,464.00
2022-11-22T17:20:52.681Z,465.00
2022-11-22T17:21:52.773Z,465.00
2022-11-22T17:22:52.898Z,465.00
2022-11-22T17:23:53.056Z,464.00
2022-11-22T17:24:53.209Z,465.00
2022-11-22T17:25:53.361Z,466.00
2022-11-22T17:26:53.513Z,465.00
2022-11-22T17:27:54.380Z,465.00
2022-11-22T17:28:53.777Z,468.00
2022-11-22T17:29:53.987Z,468.00
2022-11-22T17:30:54.050Z,465.00
2022-11-22T17:31:54.217Z,464.00
2022-11-22T17:32:54.297Z,463.00
2022-11-22T17:33:54.425Z,463.00
2022-11-22T17:34:54.592Z,465.00
2022-11-22T17:35:54.678Z,468.00
2022-11-22T17:36:54.798Z,469.00